sensor_id;sensor_type;location;lat;lon;timestamp;pressure;altitude;pressure_sealevel;temperature;humidity
35686;BME280;21808;42.142;24.720;2024-03-29T00:01:11;99036.09;;;14.17;50.46
35686;BME280;21808;42.142;24.720;2024-03-29T00:03:37;99043.16;;;14.15;50.44
35686;BME280;21808;42.142;24.720;2024-03-29T00:06:03;99036.22;;;14.14;50.10
35686;BME280;21808;42.142;24.720;2024-03-29T00:08:31;99042.47;;;14.12;50.46
35686;BME280;21808;42.142;24.720;2024-03-29T00:10:58;99038.28;;;14.08;50.98
35686;BME280;21808;42.142;24.720;2024-03-29T00:13:24;99047.16;;;14.05;52.09
35686;BME280;21808;42.142;24.720;2024-03-29T00:15:50;99041.44;;;13.97;52.78
35686;BME280;21808;42.142;24.720;2024-03-29T00:18:16;99035.56;;;13.92;52.66
35686;BME280;21808;42.142;24.720;2024-03-29T00:20:42;99041.97;;;13.87;53.36
35686;BME280;21808;42.142;24.720;2024-03-29T00:23:09;99039.19;;;13.90;53.69
35686;BME280;21808;42.142;24.720;2024-03-29T00:25:34;99036.34;;;13.94;53.70
35686;BME280;21808;42.142;24.720;2024-03-29T00:28:02;99033.56;;;13.97;53.69
35686;BME280;21808;42.142;24.720;2024-03-29T00:30:29;99047.69;;;13.95;53.78
35686;BME280;21808;42.142;24.720;2024-03-29T00:32:55;99049.75;;;13.88;53.75
35686;BME280;21808;42.142;24.720;2024-03-29T00:35:21;99062.34;;;13.99;53.42
35686;BME280;21808;42.142;24.720;2024-03-29T00:37:48;99054.84;;;14.10;53.29
35686;BME280;21808;42.142;24.720;2024-03-29T00:40:15;99045.22;;;14.09;52.97
35686;BME280;21808;42.142;24.720;2024-03-29T00:42:41;99054.47;;;13.99;53.33
35686;BME280;21808;42.142;24.720;2024-03-29T00:45:09;99052.63;;;14.01;52.74
35686;BME280;21808;42.142;24.720;2024-03-29T00:47:35;99052.13;;;14.11;51.75
35686;BME280;21808;42.142;24.720;2024-03-29T00:50:01;99045.03;;;14.13;51.61
35686;BME280;21808;42.142;24.720;2024-03-29T00:52:27;99048.72;;;14.09;51.70
35686;BME280;21808;42.142;24.720;2024-03-29T00:54:53;99039.72;;;14.15;51.01
35686;BME280;21808;42.142;24.720;2024-03-29T00:57:19;99040.25;;;14.21;50.44
35686;BME280;21808;42.142;24.720;2024-03-29T00:59:46;99036.00;;;14.36;49.83
35686;BME280;21808;42.142;24.720;2024-03-29T01:02:13;99040.63;;;14.31;49.82
35686;BME280;21808;42.142;24.720;2024-03-29T01:04:39;99033.00;;;14.26;50.46
35686;BME280;21808;42.142;24.720;2024-03-29T01:07:06;99036.38;;;14.28;50.47
35686;BME280;21808;42.142;24.720;2024-03-29T01:09:32;99033.16;;;14.23;50.62
35686;BME280;21808;42.142;24.720;2024-03-29T01:11:58;99034.06;;;14.22;51.94
35686;BME280;21808;42.142;24.720;2024-03-29T01:14:24;99045.97;;;14.12;51.93
35686;BME280;21808;42.142;24.720;2024-03-29T01:16:50;99046.53;;;14.00;52.15
35686;BME280;21808;42.142;24.720;2024-03-29T01:19:17;99047.13;;;13.88;52.80
35686;BME280;21808;42.142;24.720;2024-03-29T01:21:44;99054.38;;;13.83;53.68
35686;BME280;21808;42.142;24.720;2024-03-29T01:24:10;99060.22;;;13.72;54.20
35686;BME280;21808;42.142;24.720;2024-03-29T01:26:36;99057.19;;;13.62;54.41
35686;BME280;21808;42.142;24.720;2024-03-29T01:29:02;99058.47;;;13.54;55.08
35686;BME280;21808;42.142;24.720;2024-03-29T01:31:28;99061.53;;;13.45;55.43
35686;BME280;21808;42.142;24.720;2024-03-29T01:33:54;99067.06;;;13.39;55.92
35686;BME280;21808;42.142;24.720;2024-03-29T01:36:24;99067.09;;;13.37;55.82
35686;BME280;21808;42.142;24.720;2024-03-29T01:38:50;99067.47;;;13.30;56.23
35686;BME280;21808;42.142;24.720;2024-03-29T01:41:20;99069.59;;;13.22;56.58
35686;BME280;21808;42.142;24.720;2024-03-29T01:43:46;99065.28;;;13.21;56.84
35686;BME280;21808;42.142;24.720;2024-03-29T01:46:12;99064.66;;;13.16;56.91
35686;BME280;21808;42.142;24.720;2024-03-29T01:48:38;99064.78;;;13.13;57.14
35686;BME280;21808;42.142;24.720;2024-03-29T01:51:04;99064.13;;;13.08;57.40
35686;BME280;21808;42.142;24.720;2024-03-29T01:53:32;99062.72;;;13.01;57.89
35686;BME280;21808;42.142;24.720;2024-03-29T01:55:59;99077.78;;;12.96;58.41
35686;BME280;21808;42.142;24.720;2024-03-29T01:58:26;99086.28;;;13.01;57.79
35686;BME280;21808;42.142;24.720;2024-03-29T02:00:54;99087.06;;;13.03;57.53
35686;BME280;21808;42.142;24.720;2024-03-29T02:03:20;99089.09;;;12.97;57.87
35686;BME280;21808;42.142;24.720;2024-03-29T02:05:46;99105.22;;;12.88;57.97
35686;BME280;21808;42.142;24.720;2024-03-29T02:08:13;99115.06;;;12.81;57.64
35686;BME280;21808;42.142;24.720;2024-03-29T02:10:42;99112.38;;;12.83;57.05
35686;BME280;21808;42.142;24.720;2024-03-29T02:13:08;99115.59;;;12.69;56.96
35686;BME280;21808;42.142;24.720;2024-03-29T02:15:33;99115.94;;;12.62;56.70
35686;BME280;21808;42.142;24.720;2024-03-29T02:17:59;99112.78;;;12.54;57.07
35686;BME280;21808;42.142;24.720;2024-03-29T02:20:26;99118.22;;;12.49;56.82
35686;BME280;21808;42.142;24.720;2024-03-29T02:22:54;99122.53;;;12.70;56.40
35686;BME280;21808;42.142;24.720;2024-03-29T02:25:22;99120.16;;;12.84;55.99
35686;BME280;21808;42.142;24.720;2024-03-29T02:27:48;99122.63;;;12.89;55.50
35686;BME280;21808;42.142;24.720;2024-03-29T02:30:14;99122.47;;;12.92;55.42
35686;BME280;21808;42.142;24.720;2024-03-29T02:32:40;99119.22;;;12.87;55.10
35686;BME280;21808;42.142;24.720;2024-03-29T02:35:06;99125.41;;;12.84;55.31
35686;BME280;21808;42.142;24.720;2024-03-29T02:37:33;99132.22;;;12.88;55.45
35686;BME280;21808;42.142;24.720;2024-03-29T02:39:59;99124.91;;;12.96;55.30
35686;BME280;21808;42.142;24.720;2024-03-29T02:42:26;99134.56;;;12.94;55.25
35686;BME280;21808;42.142;24.720;2024-03-29T02:44:52;99143.38;;;12.93;55.01
35686;BME280;21808;42.142;24.720;2024-03-29T02:47:18;99144.13;;;12.95;54.46
35686;BME280;21808;42.142;24.720;2024-03-29T02:49:44;99145.28;;;13.08;54.99
35686;BME280;21808;42.142;24.720;2024-03-29T02:52:10;99140.06;;;13.08;54.43
35686;BME280;21808;42.142;24.720;2024-03-29T02:54:36;99137.97;;;13.16;54.60
35686;BME280;21808;42.142;24.720;2024-03-29T02:57:05;99144.84;;;13.18;54.72
35686;BME280;21808;42.142;24.720;2024-03-29T02:59:32;99152.47;;;13.23;54.26
35686;BME280;21808;42.142;24.720;2024-03-29T03:01:58;99155.78;;;13.26;54.42
35686;BME280;21808;42.142;24.720;2024-03-29T03:04:24;99158.94;;;13.34;54.07
35686;BME280;21808;42.142;24.720;2024-03-29T03:06:53;99165.09;;;13.52;53.44
35686;BME280;21808;42.142;24.720;2024-03-29T03:09:23;99169.66;;;13.67;52.84
35686;BME280;21808;42.142;24.720;2024-03-29T03:12:08;99177.34;;;13.70;53.04
35686;BME280;21808;42.142;24.720;2024-03-29T03:14:35;99186.00;;;13.72;53.05
35686;BME280;21808;42.142;24.720;2024-03-29T03:17:01;99188.28;;;13.61;53.63
35686;BME280;21808;42.142;24.720;2024-03-29T03:19:27;99199.84;;;13.55;53.81
35686;BME280;21808;42.142;24.720;2024-03-29T03:21:53;99208.06;;;13.48;53.92
35686;BME280;21808;42.142;24.720;2024-03-29T03:24:18;99217.97;;;13.41;54.37
35686;BME280;21808;42.142;24.720;2024-03-29T03:26:44;99222.34;;;13.41;54.57
35686;BME280;21808;42.142;24.720;2024-03-29T03:29:10;99217.28;;;13.38;54.34
35686;BME280;21808;42.142;24.720;2024-03-29T03:31:37;99222.50;;;13.38;54.40
35686;BME280;21808;42.142;24.720;2024-03-29T03:34:03;99222.50;;;13.38;54.10
35686;BME280;21808;42.142;24.720;2024-03-29T03:36:29;99228.75;;;13.54;53.16
35686;BME280;21808;42.142;24.720;2024-03-29T03:38:55;99231.94;;;13.60;52.76
35686;BME280;21808;42.142;24.720;2024-03-29T03:41:21;99229.63;;;13.73;51.94
35686;BME280;21808;42.142;24.720;2024-03-29T03:43:47;99235.31;;;13.82;51.57
35686;BME280;21808;42.142;24.720;2024-03-29T03:46:13;99239.88;;;13.77;51.79
35686;BME280;21808;42.142;24.720;2024-03-29T03:48:40;99250.59;;;13.73;51.44
35686;BME280;21808;42.142;24.720;2024-03-29T03:51:06;99248.91;;;13.72;50.92
35686;BME280;21808;42.142;24.720;2024-03-29T03:53:32;99256.59;;;13.74;50.62
35686;BME280;21808;42.142;24.720;2024-03-29T03:55:58;99255.41;;;13.81;50.21
35686;BME280;21808;42.142;24.720;2024-03-29T03:58:24;99267.72;;;13.79;50.39
35686;BME280;21808;42.142;24.720;2024-03-29T04:00:50;99274.31;;;13.70;51.23
35686;BME280;21808;42.142;24.720;2024-03-29T04:03:15;99273.56;;;13.68;50.90
35686;BME280;21808;42.142;24.720;2024-03-29T04:05:43;99277.00;;;13.68;51.13
35686;BME280;21808;42.142;24.720;2024-03-29T04:08:09;99278.53;;;13.73;50.67
35686;BME280;21808;42.142;24.720;2024-03-29T04:10:40;99275.31;;;13.85;50.02
35686;BME280;21808;42.142;24.720;2024-03-29T04:13:06;99270.06;;;13.85;50.18
35686;BME280;21808;42.142;24.720;2024-03-29T04:15:32;99278.66;;;13.89;50.16
35686;BME280;21808;42.142;24.720;2024-03-29T04:17:59;99288.03;;;13.94;49.75
35686;BME280;21808;42.142;24.720;2024-03-29T04:20:25;99285.75;;;14.05;49.30
35686;BME280;21808;42.142;24.720;2024-03-29T04:22:52;99298.34;;;14.17;48.88
35686;BME280;21808;42.142;24.720;2024-03-29T04:25:18;99289.75;;;14.32;48.42
35686;BME280;21808;42.142;24.720;2024-03-29T04:27:44;99302.38;;;14.43;47.93
35686;BME280;21808;42.142;24.720;2024-03-29T04:30:10;99294.13;;;14.50;47.42
35686;BME280;21808;42.142;24.720;2024-03-29T04:32:36;99298.88;;;14.60;47.03
35686;BME280;21808;42.142;24.720;2024-03-29T04:35:05;99302.75;;;14.70;46.67
35686;BME280;21808;42.142;24.720;2024-03-29T04:37:31;99298.00;;;14.78;46.13
35686;BME280;21808;42.142;24.720;2024-03-29T04:39:59;99307.03;;;14.90;45.73
35686;BME280;21808;42.142;24.720;2024-03-29T04:42:25;99302.97;;;15.01;45.30
35686;BME280;21808;42.142;24.720;2024-03-29T04:44:51;99310.59;;;15.06;45.09
35686;BME280;21808;42.142;24.720;2024-03-29T04:47:17;99326.38;;;15.06;45.65
35686;BME280;21808;42.142;24.720;2024-03-29T04:49:43;99328.38;;;15.01;45.83
35686;BME280;21808;42.142;24.720;2024-03-29T04:52:09;99329.47;;;14.97;45.75
35686;BME280;21808;42.142;24.720;2024-03-29T04:54:35;99329.28;;;15.00;45.81
35686;BME280;21808;42.142;24.720;2024-03-29T04:57:03;99327.94;;;15.10;45.59
35686;BME280;21808;42.142;24.720;2024-03-29T04:59:32;99322.56;;;15.29;44.80
35686;BME280;21808;42.142;24.720;2024-03-29T05:01:59;99318.09;;;15.31;44.95
35686;BME280;21808;42.142;24.720;2024-03-29T05:04:25;99317.91;;;15.34;45.00
35686;BME280;21808;42.142;24.720;2024-03-29T05:06:54;99323.16;;;15.34;44.72
35686;BME280;21808;42.142;24.720;2024-03-29T05:09:21;99324.13;;;15.50;44.46
35686;BME280;21808;42.142;24.720;2024-03-29T05:11:48;99322.63;;;15.62;44.49
35686;BME280;21808;42.142;24.720;2024-03-29T05:14:19;99329.34;;;15.84;43.78
35686;BME280;21808;42.142;24.720;2024-03-29T05:16:45;99332.06;;;15.98;43.20
35686;BME280;21808;42.142;24.720;2024-03-29T05:19:15;99341.50;;;16.34;43.32
35686;BME280;21808;42.142;24.720;2024-03-29T05:21:44;99345.25;;;16.30;42.58
35686;BME280;21808;42.142;24.720;2024-03-29T05:24:10;99345.41;;;16.43;42.16
35686;BME280;21808;42.142;24.720;2024-03-29T05:26:36;99350.59;;;16.59;42.05
35686;BME280;21808;42.142;24.720;2024-03-29T05:29:02;99354.03;;;16.77;41.94
35686;BME280;21808;42.142;24.720;2024-03-29T05:31:31;99353.59;;;16.84;41.81
35686;BME280;21808;42.142;24.720;2024-03-29T05:33:57;99358.69;;;16.87;41.87
35686;BME280;21808;42.142;24.720;2024-03-29T05:36:23;99369.88;;;17.06;41.86
35686;BME280;21808;42.142;24.720;2024-03-29T05:38:49;99374.72;;;17.14;41.48
35686;BME280;21808;42.142;24.720;2024-03-29T05:41:15;99371.16;;;17.30;41.46
35686;BME280;21808;42.142;24.720;2024-03-29T05:43:41;99373.63;;;17.33;40.81
35686;BME280;21808;42.142;24.720;2024-03-29T05:46:07;99370.31;;;17.29;41.08
35686;BME280;21808;42.142;24.720;2024-03-29T05:48:36;99374.59;;;17.46;41.17
35686;BME280;21808;42.142;24.720;2024-03-29T05:51:04;99389.47;;;17.47;41.41
35686;BME280;21808;42.142;24.720;2024-03-29T05:53:30;99391.19;;;17.48;41.97
35686;BME280;21808;42.142;24.720;2024-03-29T05:55:56;99395.38;;;17.36;41.98
35686;BME280;21808;42.142;24.720;2024-03-29T05:58:22;99401.03;;;17.60;41.62
35686;BME280;21808;42.142;24.720;2024-03-29T06:00:51;99403.56;;;17.91;41.51
35686;BME280;21808;42.142;24.720;2024-03-29T06:03:17;99388.31;;;18.09;41.18
35686;BME280;21808;42.142;24.720;2024-03-29T06:05:44;99395.91;;;18.29;40.49
35686;BME280;21808;42.142;24.720;2024-03-29T06:08:10;99396.28;;;18.51;40.38
35686;BME280;21808;42.142;24.720;2024-03-29T06:10:36;99403.44;;;18.63;40.47
35686;BME280;21808;42.142;24.720;2024-03-29T06:13:02;99394.75;;;18.75;40.38
35686;BME280;21808;42.142;24.720;2024-03-29T06:15:43;99398.47;;;18.99;39.81
35686;BME280;21808;42.142;24.720;2024-03-29T06:18:28;99404.50;;;19.15;39.50
35686;BME280;21808;42.142;24.720;2024-03-29T06:20:55;99408.22;;;19.38;39.19
35686;BME280;21808;42.142;24.720;2024-03-29T06:23:21;99413.00;;;19.46;38.68
35686;BME280;21808;42.142;24.720;2024-03-29T06:25:47;99414.66;;;19.73;37.89
35686;BME280;21808;42.142;24.720;2024-03-29T06:28:13;99403.31;;;19.71;37.75
35686;BME280;21808;42.142;24.720;2024-03-29T06:30:40;99405.75;;;19.74;36.70
35686;BME280;21808;42.142;24.720;2024-03-29T06:33:06;99416.44;;;19.73;37.48
35686;BME280;21808;42.142;24.720;2024-03-29T06:35:33;99411.81;;;19.37;37.36
35686;BME280;21808;42.142;24.720;2024-03-29T06:38:02;99421.28;;;19.28;37.39
35686;BME280;21808;42.142;24.720;2024-03-29T06:40:28;99417.88;;;19.26;37.41
35686;BME280;21808;42.142;24.720;2024-03-29T06:42:54;99427.66;;;19.37;37.18
35686;BME280;21808;42.142;24.720;2024-03-29T06:45:22;99429.38;;;19.38;36.74
35686;BME280;21808;42.142;24.720;2024-03-29T06:47:50;99418.00;;;19.50;36.39
35686;BME280;21808;42.142;24.720;2024-03-29T06:50:18;99434.44;;;19.41;36.00
35686;BME280;21808;42.142;24.720;2024-03-29T06:52:44;99438.69;;;19.44;36.28
35686;BME280;21808;42.142;24.720;2024-03-29T06:55:12;99438.34;;;19.36;36.54
35686;BME280;21808;42.142;24.720;2024-03-29T06:57:39;99438.94;;;19.53;36.21
35686;BME280;21808;42.142;24.720;2024-03-29T07:00:06;99444.44;;;19.50;35.89
35686;BME280;21808;42.142;24.720;2024-03-29T07:02:34;99443.16;;;19.43;35.90
35686;BME280;21808;42.142;24.720;2024-03-29T07:05:01;99444.44;;;19.50;35.87
35686;BME280;21808;42.142;24.720;2024-03-29T07:07:33;99442.41;;;19.80;36.70
35686;BME280;21808;42.142;24.720;2024-03-29T07:09:59;99443.78;;;20.24;35.54
35686;BME280;21808;42.142;24.720;2024-03-29T07:12:26;99451.41;;;20.54;35.01
35686;BME280;21808;42.142;24.720;2024-03-29T07:14:52;99454.59;;;20.34;35.68
35686;BME280;21808;42.142;24.720;2024-03-29T07:17:18;99453.97;;;20.18;34.55
35686;BME280;21808;42.142;24.720;2024-03-29T07:19:44;99464.97;;;20.24;34.38
35686;BME280;21808;42.142;24.720;2024-03-29T07:22:10;99465.09;;;20.23;34.19
35686;BME280;21808;42.142;24.720;2024-03-29T07:24:36;99463.06;;;20.26;34.53
35686;BME280;21808;42.142;24.720;2024-03-29T07:27:05;99479.84;;;20.76;34.90
35686;BME280;21808;42.142;24.720;2024-03-29T07:29:32;99478.13;;;21.13;32.95
35686;BME280;21808;42.142;24.720;2024-03-29T07:31:59;99469.88;;;21.28;33.71
35686;BME280;21808;42.142;24.720;2024-03-29T07:34:26;99471.31;;;21.09;32.86
35686;BME280;21808;42.142;24.720;2024-03-29T07:36:52;99471.19;;;21.46;33.39
35686;BME280;21808;42.142;24.720;2024-03-29T07:39:17;99470.88;;;21.50;32.57
35686;BME280;21808;42.142;24.720;2024-03-29T07:41:44;99472.53;;;21.64;32.62
35686;BME280;21808;42.142;24.720;2024-03-29T07:44:11;99478.81;;;21.63;32.13
35686;BME280;21808;42.142;24.720;2024-03-29T07:46:38;99476.50;;;21.82;32.79
35686;BME280;21808;42.142;24.720;2024-03-29T07:49:05;99475.69;;;22.26;32.59
35686;BME280;21808;42.142;24.720;2024-03-29T07:51:31;99481.78;;;22.28;31.72
35686;BME280;21808;42.142;24.720;2024-03-29T07:53:57;99480.81;;;22.29;32.07
35686;BME280;21808;42.142;24.720;2024-03-29T07:56:24;99483.25;;;22.43;31.87
35686;BME280;21808;42.142;24.720;2024-03-29T07:58:51;99483.16;;;22.21;31.73
35686;BME280;21808;42.142;24.720;2024-03-29T08:01:19;99482.03;;;22.36;32.00
35686;BME280;21808;42.142;24.720;2024-03-29T08:03:47;99489.31;;;22.45;31.12
35686;BME280;21808;42.142;24.720;2024-03-29T08:06:15;99481.47;;;22.20;31.02
35686;BME280;21808;42.142;24.720;2024-03-29T08:08:43;99490.75;;;22.38;32.46
35686;BME280;21808;42.142;24.720;2024-03-29T08:11:09;99485.94;;;22.54;31.82
35686;BME280;21808;42.142;24.720;2024-03-29T08:13:38;99484.78;;;22.80;31.00
35686;BME280;21808;42.142;24.720;2024-03-29T08:16:05;99480.66;;;22.98;30.71
35686;BME280;21808;42.142;24.720;2024-03-29T08:18:32;99481.06;;;23.04;30.53
35686;BME280;21808;42.142;24.720;2024-03-29T08:21:01;99482.31;;;22.55;30.32
35686;BME280;21808;42.142;24.720;2024-03-29T08:23:27;99484.66;;;22.82;30.44
35686;BME280;21808;42.142;24.720;2024-03-29T08:25:53;99482.31;;;22.55;30.73
35686;BME280;21808;42.142;24.720;2024-03-29T08:28:21;99489.59;;;22.86;30.40
35686;BME280;21808;42.142;24.720;2024-03-29T08:30:57;99490.59;;;23.18;30.43
35686;BME280;21808;42.142;24.720;2024-03-29T08:33:23;99481.13;;;23.36;31.07
35686;BME280;21808;42.142;24.720;2024-03-29T08:35:50;99499.50;;;23.71;30.33
35686;BME280;21808;42.142;24.720;2024-03-29T08:38:17;99497.22;;;23.45;29.75
35686;BME280;21808;42.142;24.720;2024-03-29T08:40:52;99489.59;;;23.41;30.97
35686;BME280;21808;42.142;24.720;2024-03-29T08:43:18;99493.44;;;23.58;29.98
35686;BME280;21808;42.142;24.720;2024-03-29T08:45:45;99495.13;;;23.59;30.00
35686;BME280;21808;42.142;24.720;2024-03-29T08:48:11;99488.53;;;23.85;29.71
35686;BME280;21808;42.142;24.720;2024-03-29T08:50:37;99481.56;;;23.73;29.38
35686;BME280;21808;42.142;24.720;2024-03-29T08:53:09;99478.91;;;24.25;29.44
35686;BME280;21808;42.142;24.720;2024-03-29T08:55:36;99475.16;;;24.48;29.18
35686;BME280;21808;42.142;24.720;2024-03-29T08:58:04;99486.25;;;24.64;28.36
35686;BME280;21808;42.142;24.720;2024-03-29T09:00:31;99491.66;;;24.01;28.95
35686;BME280;21808;42.142;24.720;2024-03-29T09:02:57;99484.44;;;24.13;29.23
35686;BME280;21808;42.142;24.720;2024-03-29T09:05:23;99484.50;;;24.22;29.08
35686;BME280;21808;42.142;24.720;2024-03-29T09:07:49;99488.72;;;24.56;29.49
35686;BME280;21808;42.142;24.720;2024-03-29T09:10:16;99493.84;;;24.48;28.60
35686;BME280;21808;42.142;24.720;2024-03-29T09:12:43;99484.22;;;24.56;28.15
35686;BME280;21808;42.142;24.720;2024-03-29T09:15:09;99487.28;;;24.52;27.88
35686;BME280;21808;42.142;24.720;2024-03-29T09:17:39;99484.06;;;24.37;28.00
35686;BME280;21808;42.142;24.720;2024-03-29T09:20:06;99471.97;;;24.54;28.09
35686;BME280;21808;42.142;24.720;2024-03-29T09:22:32;99470.16;;;25.04;28.49
35686;BME280;21808;42.142;24.720;2024-03-29T09:24:58;99465.38;;;25.47;27.52
35686;BME280;21808;42.142;24.720;2024-03-29T09:27:25;99470.78;;;25.17;27.72
35686;BME280;21808;42.142;24.720;2024-03-29T09:29:52;99470.31;;;25.42;27.85
35686;BME280;21808;42.142;24.720;2024-03-29T09:32:18;99466.47;;;25.84;26.90
35686;BME280;21808;42.142;24.720;2024-03-29T09:34:45;99456.75;;;25.83;26.96
35686;BME280;21808;42.142;24.720;2024-03-29T09:37:11;99448.75;;;25.92;27.15
35686;BME280;21808;42.142;24.720;2024-03-29T09:39:38;99444.81;;;25.96;26.38
35686;BME280;21808;42.142;24.720;2024-03-29T09:42:06;99451.53;;;26.00;26.74
35686;BME280;21808;42.142;24.720;2024-03-29T09:44:33;99452.25;;;26.21;25.92
35686;BME280;21808;42.142;24.720;2024-03-29T09:47:04;99449.13;;;26.26;25.86
35686;BME280;21808;42.142;24.720;2024-03-29T09:49:30;99441.13;;;26.44;25.79
35686;BME280;21808;42.142;24.720;2024-03-29T09:51:58;99436.72;;;26.62;25.49
35686;BME280;21808;42.142;24.720;2024-03-29T09:54:24;99433.97;;;26.81;24.21
35686;BME280;21808;42.142;24.720;2024-03-29T09:56:52;99432.75;;;27.03;24.48
35686;BME280;21808;42.142;24.720;2024-03-29T09:59:19;99434.72;;;27.10;24.94
35686;BME280;21808;42.142;24.720;2024-03-29T10:01:45;99429.97;;;27.04;24.63
35686;BME280;21808;42.142;24.720;2024-03-29T10:04:13;99421.84;;;26.77;24.39
35686;BME280;21808;42.142;24.720;2024-03-29T10:06:41;99422.44;;;26.71;25.25
35686;BME280;21808;42.142;24.720;2024-03-29T10:09:12;99424.13;;;26.72;24.70
35686;BME280;21808;42.142;24.720;2024-03-29T10:11:38;99414.19;;;26.92;25.24
35686;BME280;21808;42.142;24.720;2024-03-29T10:14:06;99414.69;;;27.14;25.03
35686;BME280;21808;42.142;24.720;2024-03-29T10:16:35;99420.44;;;27.19;24.63
35686;BME280;21808;42.142;24.720;2024-03-29T10:19:04;99413.44;;;27.35;24.67
35686;BME280;21808;42.142;24.720;2024-03-29T10:21:31;99413.16;;;26.75;24.87
35686;BME280;21808;42.142;24.720;2024-03-29T10:23:57;99415.63;;;26.86;25.24
35686;BME280;21808;42.142;24.720;2024-03-29T10:26:24;99415.97;;;27.37;24.50
35686;BME280;21808;42.142;24.720;2024-03-29T10:28:50;99402.78;;;27.26;24.36
35686;BME280;21808;42.142;24.720;2024-03-29T10:31:17;99383.47;;;27.40;24.31
35686;BME280;21808;42.142;24.720;2024-03-29T10:33:45;99376.09;;;27.51;24.00
35686;BME280;21808;42.142;24.720;2024-03-29T10:36:20;99372.06;;;27.65;23.87
35686;BME280;21808;42.142;24.720;2024-03-29T10:38:48;99380.34;;;27.27;24.42
35686;BME280;21808;42.142;24.720;2024-03-29T10:41:14;99371.63;;;27.42;24.10
35686;BME280;21808;42.142;24.720;2024-03-29T10:43:41;99363.25;;;27.28;23.71
35686;BME280;21808;42.142;24.720;2024-03-29T10:46:09;99356.09;;;27.46;23.95
35686;BME280;21808;42.142;24.720;2024-03-29T10:48:36;99351.28;;;27.32;24.22
35686;BME280;21808;42.142;24.720;2024-03-29T10:51:02;99340.16;;;27.27;24.21
35686;BME280;21808;42.142;24.720;2024-03-29T10:53:29;99334.00;;;27.61;23.95
35686;BME280;21808;42.142;24.720;2024-03-29T10:55:58;99335.44;;;27.56;23.19
35686;BME280;21808;42.142;24.720;2024-03-29T10:58:29;99330.47;;;26.99;23.57
35686;BME280;21808;42.142;24.720;2024-03-29T11:00:57;99324.75;;;27.11;23.94
35686;BME280;21808;42.142;24.720;2024-03-29T11:03:30;99325.38;;;26.79;24.25
35686;BME280;21808;42.142;24.720;2024-03-29T11:06:02;99311.38;;;27.11;24.36
35686;BME280;21808;42.142;24.720;2024-03-29T11:08:31;99307.69;;;27.30;24.46
35686;BME280;21808;42.142;24.720;2024-03-29T11:11:04;99300.91;;;27.35;22.41
35686;BME280;21808;42.142;24.720;2024-03-29T11:13:32;99298.38;;;27.69;22.22
35686;BME280;21808;42.142;24.720;2024-03-29T11:15:59;99307.38;;;27.50;22.27
35686;BME280;21808;42.142;24.720;2024-03-29T11:18:26;99307.09;;;27.71;22.75
35686;BME280;21808;42.142;24.720;2024-03-29T11:20:53;99310.34;;;27.82;23.09
35686;BME280;21808;42.142;24.720;2024-03-29T11:23:20;99299.81;;;27.46;23.17
35686;BME280;21808;42.142;24.720;2024-03-29T11:25:49;99293.00;;;27.69;23.09
35686;BME280;21808;42.142;24.720;2024-03-29T11:28:30;99293.53;;;26.93;23.67
35686;BME280;21808;42.142;24.720;2024-03-29T11:31:00;99295.06;;;27.22;23.41
35686;BME280;21808;42.142;24.720;2024-03-29T11:33:31;99297.97;;;27.11;23.47
35686;BME280;21808;42.142;24.720;2024-03-29T11:36:09;99292.31;;;27.14;22.97
35686;BME280;21808;42.142;24.720;2024-03-29T11:38:36;99281.91;;;27.29;22.37
35686;BME280;21808;42.142;24.720;2024-03-29T11:41:03;99278.13;;;27.57;22.17
35686;BME280;21808;42.142;24.720;2024-03-29T11:43:31;99284.59;;;27.64;22.20
35686;BME280;21808;42.142;24.720;2024-03-29T11:45:58;99281.34;;;27.78;21.71
35686;BME280;21808;42.142;24.720;2024-03-29T11:48:26;99290.50;;;27.92;21.44
35686;BME280;21808;42.142;24.720;2024-03-29T11:50:53;99290.75;;;27.81;21.87
35686;BME280;21808;42.142;24.720;2024-03-29T11:53:19;99295.75;;;27.77;21.73
35686;BME280;21808;42.142;24.720;2024-03-29T11:55:45;99285.66;;;27.96;22.45
35686;BME280;21808;42.142;24.720;2024-03-29T11:58:12;99288.44;;;27.86;22.47
35686;BME280;21808;42.142;24.720;2024-03-29T12:00:39;99289.03;;;27.73;22.47
35686;BME280;21808;42.142;24.720;2024-03-29T12:03:06;99291.94;;;27.44;22.54
35686;BME280;21808;42.142;24.720;2024-03-29T12:05:33;99283.59;;;27.65;22.18
35686;BME280;21808;42.142;24.720;2024-03-29T12:08:00;99290.25;;;27.26;23.01
35686;BME280;21808;42.142;24.720;2024-03-29T12:10:27;99276.09;;;27.33;22.93
35686;BME280;21808;42.142;24.720;2024-03-29T12:12:56;99280.34;;;26.38;23.73
35686;BME280;21808;42.142;24.720;2024-03-29T12:15:25;99279.09;;;26.59;23.34
35686;BME280;21808;42.142;24.720;2024-03-29T12:17:57;99273.56;;;26.34;23.73
35686;BME280;21808;42.142;24.720;2024-03-29T12:20:23;99277.31;;;26.77;23.31
35686;BME280;21808;42.142;24.720;2024-03-29T12:22:49;99265.59;;;27.05;23.58
35686;BME280;21808;42.142;24.720;2024-03-29T12:25:20;99264.44;;;27.08;23.10
35686;BME280;21808;42.142;24.720;2024-03-29T12:27:46;99262.63;;;26.28;23.74
35686;BME280;21808;42.142;24.720;2024-03-29T12:30:13;99254.31;;;26.84;23.27
35686;BME280;21808;42.142;24.720;2024-03-29T12:32:39;99254.97;;;26.42;23.67
35686;BME280;21808;42.142;24.720;2024-03-29T12:35:11;99256.84;;;26.59;23.38
35686;BME280;21808;42.142;24.720;2024-03-29T12:38:03;99257.97;;;26.83;23.37
35686;BME280;21808;42.142;24.720;2024-03-29T12:40:31;99239.38;;;26.82;23.27
35686;BME280;21808;42.142;24.720;2024-03-29T12:43:04;99248.16;;;27.01;23.90
35686;BME280;21808;42.142;24.720;2024-03-29T12:45:31;99251.06;;;27.08;24.49
35686;BME280;21808;42.142;24.720;2024-03-29T12:47:57;99255.19;;;27.37;23.26
35686;BME280;21808;42.142;24.720;2024-03-29T12:50:29;99246.22;;;27.63;23.21